sensor_id;sensor_type;location;lat;lon;timestamp;temperature;humidity
75430;DHT22;64127;51.488;5.462;2023-07-20T00:00:38;19.60;99.90
75430;DHT22;64127;51.488;5.462;2023-07-20T00:03:11;19.50;99.90
75430;DHT22;64127;51.488;5.462;2023-07-20T00:05:49;19.40;99.90
75430;DHT22;64127;51.488;5.462;2023-07-20T00:08:21;19.40;99.90
75430;DHT22;64127;51.488;5.462;2023-07-20T00:10:53;19.40;99.90
75430;DHT22;64127;51.488;5.462;2023-07-20T00:13:26;19.40;99.90
75430;DHT22;64127;51.488;5.462;2023-07-20T00:15:58;19.40;99.90
75430;DHT22;64127;51.488;5.462;2023-07-20T00:18:30;19.40;99.90
75430;DHT22;64127;51.488;5.462;2023-07-20T00:21:02;19.40;99.90
75430;DHT22;64127;51.488;5.462;2023-07-20T00:23:38;19.40;99.90
75430;DHT22;64127;51.488;5.462;2023-07-20T00:26:11;19.30;99.90
75430;DHT22;64127;51.488;5.462;2023-07-20T00:28:44;19.30;99.90
75430;DHT22;64127;51.488;5.462;2023-07-20T00:31:16;19.30;99.90
75430;DHT22;64127;51.488;5.462;2023-07-20T00:33:48;19.30;99.90
75430;DHT22;64127;51.488;5.462;2023-07-20T00:36:20;19.20;99.90
75430;DHT22;64127;51.488;5.462;2023-07-20T00:38:53;19.20;99.90
75430;DHT22;64127;51.488;5.462;2023-07-20T00:41:28;19.20;99.90
75430;DHT22;64127;51.488;5.462;2023-07-20T00:44:01;19.20;99.90
75430;DHT22;64127;51.488;5.462;2023-07-20T00:46:33;19.20;99.90
75430;DHT22;64127;51.488;5.462;2023-07-20T00:49:07;19.20;99.90
75430;DHT22;64127;51.488;5.462;2023-07-20T00:51:40;19.10;99.90
75430;DHT22;64127;51.488;5.462;2023-07-20T00:54:15;19.10;99.90
75430;DHT22;64127;51.488;5.462;2023-07-20T00:56:48;19.00;99.90
75430;DHT22;64127;51.488;5.462;2023-07-20T00:59:22;18.90;99.90
75430;DHT22;64127;51.488;5.462;2023-07-20T01:01:54;18.90;99.90
75430;DHT22;64127;51.488;5.462;2023-07-20T01:04:28;18.90;99.90
75430;DHT22;64127;51.488;5.462;2023-07-20T01:09:48;18.80;99.90
75430;DHT22;64127;51.488;5.462;2023-07-20T01:12:48;18.80;99.90
75430;DHT22;64127;51.488;5.462;2023-07-20T01:15:24;18.80;99.90
75430;DHT22;64127;51.488;5.462;2023-07-20T01:17:56;18.70;99.90
75430;DHT22;64127;51.488;5.462;2023-07-20T01:20:31;18.70;99.90
75430;DHT22;64127;51.488;5.462;2023-07-20T01:26:38;18.70;99.90
75430;DHT22;64127;51.488;5.462;2023-07-20T01:32:33;18.70;99.90
75430;DHT22;64127;51.488;5.462;2023-07-20T01:35:10;18.70;99.90
75430;DHT22;64127;51.488;5.462;2023-07-20T01:37:46;18.60;99.90
75430;DHT22;64127;51.488;5.462;2023-07-20T01:40:22;18.60;99.90
75430;DHT22;64127;51.488;5.462;2023-07-20T01:42:57;18.50;99.90
75430;DHT22;64127;51.488;5.462;2023-07-20T01:45:29;18.50;99.90
75430;DHT22;64127;51.488;5.462;2023-07-20T01:48:01;18.50;99.90
75430;DHT22;64127;51.488;5.462;2023-07-20T01:50:33;18.50;99.90
75430;DHT22;64127;51.488;5.462;2023-07-20T01:53:06;18.50;99.90
75430;DHT22;64127;51.488;5.462;2023-07-20T01:55:38;18.50;99.90
75430;DHT22;64127;51.488;5.462;2023-07-20T01:58:10;18.50;99.90
75430;DHT22;64127;51.488;5.462;2023-07-20T02:00:43;18.50;99.90
75430;DHT22;64127;51.488;5.462;2023-07-20T02:03:15;18.50;99.90
75430;DHT22;64127;51.488;5.462;2023-07-20T02:05:47;18.40;99.90
75430;DHT22;64127;51.488;5.462;2023-07-20T02:08:20;18.40;99.90
75430;DHT22;64127;51.488;5.462;2023-07-20T02:10:57;18.40;99.90
75430;DHT22;64127;51.488;5.462;2023-07-20T02:13:30;18.30;99.90
75430;DHT22;64127;51.488;5.462;2023-07-20T02:16:10;18.30;99.90
75430;DHT22;64127;51.488;5.462;2023-07-20T02:18:43;18.30;99.90
75430;DHT22;64127;51.488;5.462;2023-07-20T02:21:15;18.30;99.90
75430;DHT22;64127;51.488;5.462;2023-07-20T02:23:47;18.30;99.90
75430;DHT22;64127;51.488;5.462;2023-07-20T02:26:20;18.30;99.90
75430;DHT22;64127;51.488;5.462;2023-07-20T02:28:53;18.30;99.90
75430;DHT22;64127;51.488;5.462;2023-07-20T02:31:25;18.40;99.90
75430;DHT22;64127;51.488;5.462;2023-07-20T02:33:57;18.50;99.90
75430;DHT22;64127;51.488;5.462;2023-07-20T02:36:29;18.50;99.90
75430;DHT22;64127;51.488;5.462;2023-07-20T02:39:01;18.60;99.90
75430;DHT22;64127;51.488;5.462;2023-07-20T02:41:36;18.60;99.90
75430;DHT22;64127;51.488;5.462;2023-07-20T02:44:08;18.60;99.90
75430;DHT22;64127;51.488;5.462;2023-07-20T02:46:41;18.60;99.90
75430;DHT22;64127;51.488;5.462;2023-07-20T02:49:13;18.60;99.90
75430;DHT22;64127;51.488;5.462;2023-07-20T02:51:45;18.60;99.90
75430;DHT22;64127;51.488;5.462;2023-07-20T02:54:21;18.60;99.90
75430;DHT22;64127;51.488;5.462;2023-07-20T02:56:54;18.70;99.90
75430;DHT22;64127;51.488;5.462;2023-07-20T02:59:26;18.60;99.90
75430;DHT22;64127;51.488;5.462;2023-07-20T03:02:01;18.70;99.90
75430;DHT22;64127;51.488;5.462;2023-07-20T03:04:33;18.70;99.90
75430;DHT22;64127;51.488;5.462;2023-07-20T03:07:08;18.60;99.90
75430;DHT22;64127;51.488;5.462;2023-07-20T03:09:43;18.60;99.90
75430;DHT22;64127;51.488;5.462;2023-07-20T03:12:16;18.60;99.90
75430;DHT22;64127;51.488;5.462;2023-07-20T03:14:48;18.60;99.90
75430;DHT22;64127;51.488;5.462;2023-07-20T03:17:20;18.60;99.90
75430;DHT22;64127;51.488;5.462;2023-07-20T03:19:52;18.60;99.90
75430;DHT22;64127;51.488;5.462;2023-07-20T03:22:25;18.60;99.90
75430;DHT22;64127;51.488;5.462;2023-07-20T03:24:57;18.60;99.90
75430;DHT22;64127;51.488;5.462;2023-07-20T03:27:29;18.60;99.90
75430;DHT22;64127;51.488;5.462;2023-07-20T03:30:01;18.60;99.90
75430;DHT22;64127;51.488;5.462;2023-07-20T03:32:34;18.70;99.90
75430;DHT22;64127;51.488;5.462;2023-07-20T03:35:07;18.70;99.90
75430;DHT22;64127;51.488;5.462;2023-07-20T03:37:42;18.70;99.90
75430;DHT22;64127;51.488;5.462;2023-07-20T03:40:15;18.70;99.90
75430;DHT22;64127;51.488;5.462;2023-07-20T03:42:48;18.70;99.90
75430;DHT22;64127;51.488;5.462;2023-07-20T03:45:20;18.70;99.90
75430;DHT22;64127;51.488;5.462;2023-07-20T03:47:56;18.60;99.90
75430;DHT22;64127;51.488;5.462;2023-07-20T03:50:28;18.80;99.90
75430;DHT22;64127;51.488;5.462;2023-07-20T03:53:01;18.80;99.90
75430;DHT22;64127;51.488;5.462;2023-07-20T03:55:35;18.70;99.90
75430;DHT22;64127;51.488;5.462;2023-07-20T03:58:07;18.70;99.90
75430;DHT22;64127;51.488;5.462;2023-07-20T04:00:47;18.70;99.90
75430;DHT22;64127;51.488;5.462;2023-07-20T04:03:22;18.70;99.90
75430;DHT22;64127;51.488;5.462;2023-07-20T04:05:58;18.70;99.90
75430;DHT22;64127;51.488;5.462;2023-07-20T04:08:33;18.70;99.90
75430;DHT22;64127;51.488;5.462;2023-07-20T04:11:06;18.60;99.90
75430;DHT22;64127;51.488;5.462;2023-07-20T04:13:39;18.60;99.90
75430;DHT22;64127;51.488;5.462;2023-07-20T04:16:11;18.60;99.90
75430;DHT22;64127;51.488;5.462;2023-07-20T04:18:43;18.50;99.90
75430;DHT22;64127;51.488;5.462;2023-07-20T04:21:15;18.50;99.90
75430;DHT22;64127;51.488;5.462;2023-07-20T04:23:48;18.50;99.90
75430;DHT22;64127;51.488;5.462;2023-07-20T04:26:20;18.50;99.90
75430;DHT22;64127;51.488;5.462;2023-07-20T04:28:53;18.50;99.90
75430;DHT22;64127;51.488;5.462;2023-07-20T04:31:25;18.50;99.90
75430;DHT22;64127;51.488;5.462;2023-07-20T04:34:00;18.50;99.90
75430;DHT22;64127;51.488;5.462;2023-07-20T04:36:33;18.50;99.90
75430;DHT22;64127;51.488;5.462;2023-07-20T04:39:06;18.50;99.90
75430;DHT22;64127;51.488;5.462;2023-07-20T04:41:57;18.50;99.90
75430;DHT22;64127;51.488;5.462;2023-07-20T04:44:31;18.50;99.90
75430;DHT22;64127;51.488;5.462;2023-07-20T04:47:04;18.50;99.90
75430;DHT22;64127;51.488;5.462;2023-07-20T04:49:39;18.40;99.90
75430;DHT22;64127;51.488;5.462;2023-07-20T04:52:12;18.40;99.90
75430;DHT22;64127;51.488;5.462;2023-07-20T04:55:08;18.40;99.90
75430;DHT22;64127;51.488;5.462;2023-07-20T04:57:40;18.40;99.90
75430;DHT22;64127;51.488;5.462;2023-07-20T05:00:13;18.40;99.90
75430;DHT22;64127;51.488;5.462;2023-07-20T05:02:46;18.30;99.90
75430;DHT22;64127;51.488;5.462;2023-07-20T05:05:20;18.30;99.90
75430;DHT22;64127;51.488;5.462;2023-07-20T05:07:53;18.40;99.90
75430;DHT22;64127;51.488;5.462;2023-07-20T05:10:26;18.40;99.90
75430;DHT22;64127;51.488;5.462;2023-07-20T05:13:04;18.40;99.90
75430;DHT22;64127;51.488;5.462;2023-07-20T05:15:36;18.40;99.90
75430;DHT22;64127;51.488;5.462;2023-07-20T05:18:11;18.40;99.90
75430;DHT22;64127;51.488;5.462;2023-07-20T05:20:48;18.40;99.90
75430;DHT22;64127;51.488;5.462;2023-07-20T05:23:21;18.40;99.90
75430;DHT22;64127;51.488;5.462;2023-07-20T05:25:58;18.40;99.90
75430;DHT22;64127;51.488;5.462;2023-07-20T05:28:31;18.50;99.90
75430;DHT22;64127;51.488;5.462;2023-07-20T05:31:03;18.50;99.90
75430;DHT22;64127;51.488;5.462;2023-07-20T05:33:43;18.50;99.90
75430;DHT22;64127;51.488;5.462;2023-07-20T05:36:15;18.50;99.90
75430;DHT22;64127;51.488;5.462;2023-07-20T05:38:47;18.50;99.90
75430;DHT22;64127;51.488;5.462;2023-07-20T05:41:21;18.60;99.90
75430;DHT22;64127;51.488;5.462;2023-07-20T05:43:56;18.60;99.90
75430;DHT22;64127;51.488;5.462;2023-07-20T05:46:29;18.70;99.90
75430;DHT22;64127;51.488;5.462;2023-07-20T05:49:17;18.70;99.90
75430;DHT22;64127;51.488;5.462;2023-07-20T05:51:49;18.70;99.90
75430;DHT22;64127;51.488;5.462;2023-07-20T05:54:23;18.70;99.90
75430;DHT22;64127;51.488;5.462;2023-07-20T05:56:59;18.80;99.90
75430;DHT22;64127;51.488;5.462;2023-07-20T05:59:31;18.80;99.90
75430;DHT22;64127;51.488;5.462;2023-07-20T06:02:07;18.80;99.90
75430;DHT22;64127;51.488;5.462;2023-07-20T06:04:40;18.80;99.90
75430;DHT22;64127;51.488;5.462;2023-07-20T06:07:12;18.80;99.90
75430;DHT22;64127;51.488;5.462;2023-07-20T06:09:47;18.80;99.90
75430;DHT22;64127;51.488;5.462;2023-07-20T06:12:20;18.80;99.90
75430;DHT22;64127;51.488;5.462;2023-07-20T06:14:52;18.90;99.90
75430;DHT22;64127;51.488;5.462;2023-07-20T06:17:24;19.00;99.90
75430;DHT22;64127;51.488;5.462;2023-07-20T06:19:57;19.10;99.90
75430;DHT22;64127;51.488;5.462;2023-07-20T06:22:29;19.20;99.90
75430;DHT22;64127;51.488;5.462;2023-07-20T06:25:01;19.40;99.90
75430;DHT22;64127;51.488;5.462;2023-07-20T06:27:33;19.60;99.90
75430;DHT22;64127;51.488;5.462;2023-07-20T06:30:08;19.60;99.90
75430;DHT22;64127;51.488;5.462;2023-07-20T06:32:40;19.70;99.90
75430;DHT22;64127;51.488;5.462;2023-07-20T06:35:13;19.90;99.90
75430;DHT22;64127;51.488;5.462;2023-07-20T06:37:49;20.00;99.90
75430;DHT22;64127;51.488;5.462;2023-07-20T06:40:21;20.20;99.90
75430;DHT22;64127;51.488;5.462;2023-07-20T06:43:09;20.10;99.90
75430;DHT22;64127;51.488;5.462;2023-07-20T06:45:45;20.10;99.90
75430;DHT22;64127;51.488;5.462;2023-07-20T06:48:33;20.10;99.90
75430;DHT22;64127;51.488;5.462;2023-07-20T06:51:20;20.20;99.90
75430;DHT22;64127;51.488;5.462;2023-07-20T06:54:06;20.40;99.90
75430;DHT22;64127;51.488;5.462;2023-07-20T06:56:55;20.50;99.90
75430;DHT22;64127;51.488;5.462;2023-07-20T07:00:10;20.60;99.90
75430;DHT22;64127;51.488;5.462;2023-07-20T07:02:47;20.90;99.90
75430;DHT22;64127;51.488;5.462;2023-07-20T07:05:22;21.00;99.90
75430;DHT22;64127;51.488;5.462;2023-07-20T07:07:56;21.20;99.90
75430;DHT22;64127;51.488;5.462;2023-07-20T07:10:29;21.30;99.90
75430;DHT22;64127;51.488;5.462;2023-07-20T07:13:04;21.30;99.90
75430;DHT22;64127;51.488;5.462;2023-07-20T07:15:37;21.20;99.90
75430;DHT22;64127;51.488;5.462;2023-07-20T07:18:10;21.20;99.90
75430;DHT22;64127;51.488;5.462;2023-07-20T07:21:00;21.40;99.90
75430;DHT22;64127;51.488;5.462;2023-07-20T07:23:39;21.70;99.90
75430;DHT22;64127;51.488;5.462;2023-07-20T07:26:14;21.90;99.90
75430;DHT22;64127;51.488;5.462;2023-07-20T07:28:52;22.10;99.90
75430;DHT22;64127;51.488;5.462;2023-07-20T07:31:28;22.30;99.90
75430;DHT22;64127;51.488;5.462;2023-07-20T07:34:02;22.30;99.90
75430;DHT22;64127;51.488;5.462;2023-07-20T07:36:35;22.40;99.90
75430;DHT22;64127;51.488;5.462;2023-07-20T07:39:09;22.40;99.90
75430;DHT22;64127;51.488;5.462;2023-07-20T07:41:45;22.40;99.90
75430;DHT22;64127;51.488;5.462;2023-07-20T07:44:18;22.50;99.90
75430;DHT22;64127;51.488;5.462;2023-07-20T07:46:59;22.60;99.70
75430;DHT22;64127;51.488;5.462;2023-07-20T07:49:32;22.80;99.20
75430;DHT22;64127;51.488;5.462;2023-07-20T07:52:09;22.90;99.00
75430;DHT22;64127;51.488;5.462;2023-07-20T07:54:41;23.00;98.70
75430;DHT22;64127;51.488;5.462;2023-07-20T07:57:17;23.00;98.40
75430;DHT22;64127;51.488;5.462;2023-07-20T07:59:52;22.90;98.00
75430;DHT22;64127;51.488;5.462;2023-07-20T08:02:24;22.80;98.30
75430;DHT22;64127;51.488;5.462;2023-07-20T08:04:59;22.80;98.30
75430;DHT22;64127;51.488;5.462;2023-07-20T08:07:45;22.70;98.20
75430;DHT22;64127;51.488;5.462;2023-07-20T08:10:32;22.50;98.20
75430;DHT22;64127;51.488;5.462;2023-07-20T08:13:04;22.20;98.40
75430;DHT22;64127;51.488;5.462;2023-07-20T08:15:50;22.00;98.70
75430;DHT22;64127;51.488;5.462;2023-07-20T08:18:32;21.90;99.20
75430;DHT22;64127;51.488;5.462;2023-07-20T08:21:55;21.90;99.30
75430;DHT22;64127;51.488;5.462;2023-07-20T08:24:31;21.80;99.20
75430;DHT22;64127;51.488;5.462;2023-07-20T08:27:16;21.90;99.10
75430;DHT22;64127;51.488;5.462;2023-07-20T08:29:52;21.90;99.00
75430;DHT22;64127;51.488;5.462;2023-07-20T08:32:47;22.00;98.90
75430;DHT22;64127;51.488;5.462;2023-07-20T08:39:08;22.20;97.90
75430;DHT22;64127;51.488;5.462;2023-07-20T08:45:17;22.50;97.40
75430;DHT22;64127;51.488;5.462;2023-07-20T08:47:50;22.80;96.80
75430;DHT22;64127;51.488;5.462;2023-07-20T08:50:23;22.90;95.70
75430;DHT22;64127;51.488;5.462;2023-07-20T08:53:12;23.00;95.40
75430;DHT22;64127;51.488;5.462;2023-07-20T08:55:51;23.20;94.80
75430;DHT22;64127;51.488;5.462;2023-07-20T08:58:40;23.30;94.40
75430;DHT22;64127;51.488;5.462;2023-07-20T09:02:22;23.50;93.90
75430;DHT22;64127;51.488;5.462;2023-07-20T09:05:14;23.70;93.60
75430;DHT22;64127;51.488;5.462;2023-07-20T09:07:52;23.90;93.10
75430;DHT22;64127;51.488;5.462;2023-07-20T09:10:43;24.10;92.40
75430;DHT22;64127;51.488;5.462;2023-07-20T09:13:37;24.40;91.70
75430;DHT22;64127;51.488;5.462;2023-07-20T09:20:21;24.60;89.80
75430;DHT22;64127;51.488;5.462;2023-07-20T09:24:01;24.60;89.60
75430;DHT22;64127;51.488;5.462;2023-07-20T09:31:27;24.80;87.20
75430;DHT22;64127;51.488;5.462;2023-07-20T09:34:11;24.90;86.40
75430;DHT22;64127;51.488;5.462;2023-07-20T09:37:25;24.70;84.00
75430;DHT22;64127;51.488;5.462;2023-07-20T09:41:02;24.60;83.80
75430;DHT22;64127;51.488;5.462;2023-07-20T09:44:00;24.80;83.90
75430;DHT22;64127;51.488;5.462;2023-07-20T09:46:54;24.90;83.00
75430;DHT22;64127;51.488;5.462;2023-07-20T09:49:42;25.00;82.10
75430;DHT22;64127;51.488;5.462;2023-07-20T09:52:21;25.20;81.30
75430;DHT22;64127;51.488;5.462;2023-07-20T09:54:57;25.10;80.40
75430;DHT22;64127;51.488;5.462;2023-07-20T09:57:33;24.90;80.00
75430;DHT22;64127;51.488;5.462;2023-07-20T10:00:08;24.80;79.60
75430;DHT22;64127;51.488;5.462;2023-07-20T10:02:51;24.80;79.70
75430;DHT22;64127;51.488;5.462;2023-07-20T10:05:24;24.70;80.20
75430;DHT22;64127;51.488;5.462;2023-07-20T10:08:01;24.70;80.90
75430;DHT22;64127;51.488;5.462;2023-07-20T10:10:49;24.40;81.30
75430;DHT22;64127;51.488;5.462;2023-07-20T10:13:30;24.20;82.90
75430;DHT22;64127;51.488;5.462;2023-07-20T10:16:12;24.00;84.80
75430;DHT22;64127;51.488;5.462;2023-07-20T10:18:51;23.90;85.90
75430;DHT22;64127;51.488;5.462;2023-07-20T10:21:33;23.90;86.90
75430;DHT22;64127;51.488;5.462;2023-07-20T10:24:17;23.90;86.80
75430;DHT22;64127;51.488;5.462;2023-07-20T10:26:55;24.00;86.00
75430;DHT22;64127;51.488;5.462;2023-07-20T10:29:33;24.30;85.30
75430;DHT22;64127;51.488;5.462;2023-07-20T10:32:07;24.50;84.80
75430;DHT22;64127;51.488;5.462;2023-07-20T10:34:53;24.80;83.70
75430;DHT22;64127;51.488;5.462;2023-07-20T10:38:03;25.10;82.80
75430;DHT22;64127;51.488;5.462;2023-07-20T10:40:56;25.40;81.40
75430;DHT22;64127;51.488;5.462;2023-07-20T10:44:30;25.60;79.60
75430;DHT22;64127;51.488;5.462;2023-07-20T10:47:08;25.70;79.00
75430;DHT22;64127;51.488;5.462;2023-07-20T10:50:00;25.80;78.10
75430;DHT22;64127;51.488;5.462;2023-07-20T10:52:40;25.70;77.10
75430;DHT22;64127;51.488;5.462;2023-07-20T10:55:19;25.60;76.50
75430;DHT22;64127;51.488;5.462;2023-07-20T10:58:24;25.40;76.10
75430;DHT22;64127;51.488;5.462;2023-07-20T11:01:04;25.30;75.40
75430;DHT22;64127;51.488;5.462;2023-07-20T11:03:41;25.40;75.80
75430;DHT22;64127;51.488;5.462;2023-07-20T11:09:13;25.30;74.80
75430;DHT22;64127;51.488;5.462;2023-07-20T11:12:09;25.10;74.60
75430;DHT22;64127;51.488;5.462;2023-07-20T11:14:59;24.80;74.70
75430;DHT22;64127;51.488;5.462;2023-07-20T11:18:11;24.60;75.00
75430;DHT22;64127;51.488;5.462;2023-07-20T11:20:57;24.40;76.10
75430;DHT22;64127;51.488;5.462;2023-07-20T11:23:31;24.40;76.20
75430;DHT22;64127;51.488;5.462;2023-07-20T11:26:04;24.40;76.90
75430;DHT22;64127;51.488;5.462;2023-07-20T11:28:50;24.30;76.30
75430;DHT22;64127;51.488;5.462;2023-07-20T11:31:27;24.20;76.20
75430;DHT22;64127;51.488;5.462;2023-07-20T11:34:22;24.10;76.40
75430;DHT22;64127;51.488;5.462;2023-07-20T11:37:00;23.90;76.20
75430;DHT22;64127;51.488;5.462;2023-07-20T11:40:08;23.90;76.30
75430;DHT22;64127;51.488;5.462;2023-07-20T11:42:43;23.80;76.20
75430;DHT22;64127;51.488;5.462;2023-07-20T11:45:19;23.70;76.40
75430;DHT22;64127;51.488;5.462;2023-07-20T11:47:58;23.80;77.10
75430;DHT22;64127;51.488;5.462;2023-07-20T11:50:39;23.90;76.60
75430;DHT22;64127;51.488;5.462;2023-07-20T11:53:12;24.10;76.20
75430;DHT22;64127;51.488;5.462;2023-07-20T11:55:45;24.30;75.70
75430;DHT22;64127;51.488;5.462;2023-07-20T11:58:18;24.30;75.30
75430;DHT22;64127;51.488;5.462;2023-07-20T12:00:51;24.40;74.90
75430;DHT22;64127;51.488;5.462;2023-07-20T12:03:31;24.30;74.40
75430;DHT22;64127;51.488;5.462;2023-07-20T12:06:31;24.20;74.30
75430;DHT22;64127;51.488;5.462;2023-07-20T12:09:04;24.20;73.70
75430;DHT22;64127;51.488;5.462;2023-07-20T12:11:43;24.20;73.70
75430;DHT22;64127;51.488;5.462;2023-07-20T12:14:17;24.30;73.00
75430;DHT22;64127;51.488;5.462;2023-07-20T12:16:53;24.40;72.40
75430;DHT22;64127;51.488;5.462;2023-07-20T12:19:28;24.50;72.00
75430;DHT22;64127;51.488;5.462;2023-07-20T12:22:12;24.70;71.40
75430;DHT22;64127;51.488;5.462;2023-07-20T12:24:52;24.90;71.60
75430;DHT22;64127;51.488;5.462;2023-07-20T12:27:28;25.20;71.40
75430;DHT22;64127;51.488;5.462;2023-07-20T12:30:15;25.40;71.00
75430;DHT22;64127;51.488;5.462;2023-07-20T12:32:52;25.50;71.10
75430;DHT22;64127;51.488;5.462;2023-07-20T12:35:25;25.40;70.80
75430;DHT22;64127;51.488;5.462;2023-07-20T12:37:58;25.30;70.60
75430;DHT22;64127;51.488;5.462;2023-07-20T12:40:34;25.00;70.30
75430;DHT22;64127;51.488;5.462;2023-07-20T12:43:08;24.90;71.40
75430;DHT22;64127;51.488;5.462;2023-07-20T12:45:41;24.70;70.40
75430;DHT22;64127;51.488;5.462;2023-07-20T12:48:17;24.60;70.60
75430;DHT22;64127;51.488;5.462;2023-07-20T12:50:50;24.40;70.70
75430;DHT22;64127;51.488;5.462;2023-07-20T12:53:25;24.20;71.00
75430;DHT22;64127;51.488;5.462;2023-07-20T12:55:59;24.10;71.20
75430;DHT22;64127;51.488;5.462;2023-07-20T12:58:51;24.10;71.50
75430;DHT22;64127;51.488;5.462;2023-07-20T13:01:24;24.20;72.00
75430;DHT22;64127;51.488;5.462;2023-07-20T13:03:56;24.30;72.50
75430;DHT22;64127;51.488;5.462;2023-07-20T13:06:34;24.40;72.80
75430;DHT22;64127;51.488;5.462;2023-07-20T13:09:08;24.50;73.10
75430;DHT22;64127;51.488;5.462;2023-07-20T13:11:40;24.60;73.20
75430;DHT22;64127;51.488;5.462;2023-07-20T13:14:12;24.60;73.20
75430;DHT22;64127;51.488;5.462;2023-07-20T13:16:44;24.50;73.20
75430;DHT22;64127;51.488;5.462;2023-07-20T13:19:19;24.50;73.90
75430;DHT22;64127;51.488;5.462;2023-07-20T13:21:52;24.50;73.90
75430;DHT22;64127;51.488;5.462;2023-07-20T13:24:24;24.50;74.20
75430;DHT22;64127;51.488;5.462;2023-07-20T13:26:59;24.60;74.60
75430;DHT22;64127;51.488;5.462;2023-07-20T13:29:31;24.80;74.50
75430;DHT22;64127;51.488;5.462;2023-07-20T13:32:10;25.00;74.20
75430;DHT22;64127;51.488;5.462;2023-07-20T13:34:42;25.20;73.90
75430;DHT22;64127;51.488;5.462;2023-07-20T13:37:19;25.30;73.80
75430;DHT22;64127;51.488;5.462;2023-07-20T13:39:54;25.50;73.20
75430;DHT22;64127;51.488;5.462;2023-07-20T13:42:28;25.50;72.80
75430;DHT22;64127;51.488;5.462;2023-07-20T13:45:00;25.50;72.40
75430;DHT22;64127;51.488;5.462;2023-07-20T13:47:33;25.50;72.10
75430;DHT22;64127;51.488;5.462;2023-07-20T13:50:08;25.40;72.30
75430;DHT22;64127;51.488;5.462;2023-07-20T13:52:59;25.30;72.50
75430;DHT22;64127;51.488;5.462;2023-07-20T13:55:37;25.30;72.40
75430;DHT22;64127;51.488;5.462;2023-07-20T13:58:15;25.30;72.70
75430;DHT22;64127;51.488;5.462;2023-07-20T14:00:47;25.40;72.30
75430;DHT22;64127;51.488;5.462;2023-07-20T14:03:19;25.60;71.90
75430;DHT22;64127;51.488;5.462;2023-07-20T14:05:52;25.80;71.50
75430;DHT22;64127;51.488;5.462;2023-07-20T14:08:26;26.10;71.40
75430;DHT22;64127;51.488;5.462;2023-07-20T14:11:01;26.30;70.90
75430;DHT22;64127;51.488;5.462;2023-07-20T14:13:37;26.40;70.20
75430;DHT22;64127;51.488;5.462;2023-07-20T14:16:18;26.60;69.80
75430;DHT22;64127;51.488;5.462;2023-07-20T14:18:52;26.80;69.60
75430;DHT22;64127;51.488;5.462;2023-07-20T14:21:27;26.70;68.50
75430;DHT22;64127;51.488;5.462;2023-07-20T14:24:03;26.40;67.90
75430;DHT22;64127;51.488;5.462;2023-07-20T14:26:40;26.10;67.90
75430;DHT22;64127;51.488;5.462;2023-07-20T14:29:15;25.90;68.20
75430;DHT22;64127;51.488;5.462;2023-07-20T14:31:47;25.80;68.30
75430;DHT22;64127;51.488;5.462;2023-07-20T14:34:27;25.80;68.50
75430;DHT22;64127;51.488;5.462;2023-07-20T14:37:01;25.90;68.50
75430;DHT22;64127;51.488;5.462;2023-07-20T14:39:34;25.90;68.30
75430;DHT22;64127;51.488;5.462;2023-07-20T14:42:07;26.00;68.30
75430;DHT22;64127;51.488;5.462;2023-07-20T14:44:44;25.90;68.10
75430;DHT22;64127;51.488;5.462;2023-07-20T14:47:19;25.90;68.00
75430;DHT22;64127;51.488;5.462;2023-07-20T14:49:52;25.70;67.90
75430;DHT22;64127;51.488;5.462;2023-07-20T14:52:26;25.60;68.20
75430;DHT22;64127;51.488;5.462;2023-07-20T14:55:00;25.50;68.40
75430;DHT22;64127;51.488;5.462;2023-07-20T14:57:32;25.30;68.30
75430;DHT22;64127;51.488;5.462;2023-07-20T15:00:08;25.20;68.90
75430;DHT22;64127;51.488;5.462;2023-07-20T15:02:42;25.10;69.30
75430;DHT22;64127;51.488;5.462;2023-07-20T15:05:22;24.90;69.80
75430;DHT22;64127;51.488;5.462;2023-07-20T15:07:55;24.90;70.60
75430;DHT22;64127;51.488;5.462;2023-07-20T15:10:28;24.80;70.90
75430;DHT22;64127;51.488;5.462;2023-07-20T15:13:00;24.70;71.40
75430;DHT22;64127;51.488;5.462;2023-07-20T15:15:40;24.70;71.70
75430;DHT22;64127;51.488;5.462;2023-07-20T15:18:13;24.60;72.20
75430;DHT22;64127;51.488;5.462;2023-07-20T15:20:52;24.60;72.60
75430;DHT22;64127;51.488;5.462;2023-07-20T15:23:29;24.50;72.70
75430;DHT22;64127;51.488;5.462;2023-07-20T15:26:01;24.40;73.00
75430;DHT22;64127;51.488;5.462;2023-07-20T15:28:33;24.40;73.20
75430;DHT22;64127;51.488;5.462;2023-07-20T15:31:06;24.40;73.70
75430;DHT22;64127;51.488;5.462;2023-07-20T15:33:38;24.30;74.00
75430;DHT22;64127;51.488;5.462;2023-07-20T15:36:10;24.20;75.10
75430;DHT22;64127;51.488;5.462;2023-07-20T15:38:45;24.20;76.50
75430;DHT22;64127;51.488;5.462;2023-07-20T15:41:18;24.10;77.40
75430;DHT22;64127;51.488;5.462;2023-07-20T15:43:50;24.10;77.80
75430;DHT22;64127;51.488;5.462;2023-07-20T15:49:12;24.00;78.70
75430;DHT22;64127;51.488;5.462;2023-07-20T15:51:45;24.10;78.60
75430;DHT22;64127;51.488;5.462;2023-07-20T15:54:18;24.10;78.30
75430;DHT22;64127;51.488;5.462;2023-07-20T15:56:50;24.10;78.50
75430;DHT22;64127;51.488;5.462;2023-07-20T15:59:22;24.10;78.60
75430;DHT22;64127;51.488;5.462;2023-07-20T16:01:58;24.10;78.70
75430;DHT22;64127;51.488;5.462;2023-07-20T16:04:31;24.10;79.30
75430;DHT22;64127;51.488;5.462;2023-07-20T16:07:04;24.10;79.30
75430;DHT22;64127;51.488;5.462;2023-07-20T16:09:38;24.20;79.40
75430;DHT22;64127;51.488;5.462;2023-07-20T16:12:16;24.20;78.50
75430;DHT22;64127;51.488;5.462;2023-07-20T16:14:52;24.20;77.70
75430;DHT22;64127;51.488;5.462;2023-07-20T16:17:27;24.20;77.30
75430;DHT22;64127;51.488;5.462;2023-07-20T16:19:59;24.20;77.50
75430;DHT22;64127;51.488;5.462;2023-07-20T16:22:31;24.20;77.80
75430;DHT22;64127;51.488;5.462;2023-07-20T16:25:04;24.20;77.80
75430;DHT22;64127;51.488;5.462;2023-07-20T16:27:36;24.20;77.90
75430;DHT22;64127;51.488;5.462;2023-07-20T16:30:09;24.20;77.90
75430;DHT22;64127;51.488;5.462;2023-07-20T16:32:41;24.10;77.90
75430;DHT22;64127;51.488;5.462;2023-07-20T16:35:16;24.10;78.20
75430;DHT22;64127;51.488;5.462;2023-07-20T16:37:55;24.00;78.30
75430;DHT22;64127;51.488;5.462;2023-07-20T16:40:36;24.00;78.50
75430;DHT22;64127;51.488;5.462;2023-07-20T16:43:15;24.00;78.90
75430;DHT22;64127;51.488;5.462;2023-07-20T16:46:10;23.90;79.20
75430;DHT22;64127;51.488;5.462;2023-07-20T16:48:57;23.90;79.60
75430;DHT22;64127;51.488;5.462;2023-07-20T16:51:34;23.80;79.60
75430;DHT22;64127;51.488;5.462;2023-07-20T16:54:06;23.80;79.80
75430;DHT22;64127;51.488;5.462;2023-07-20T16:56:39;23.80;80.00
75430;DHT22;64127;51.488;5.462;2023-07-20T16:59:13;23.70;80.30
75430;DHT22;64127;51.488;5.462;2023-07-20T17:01:45;23.70;80.40
75430;DHT22;64127;51.488;5.462;2023-07-20T17:04:24;23.70;81.20